Time;durP1;ratioP1;P1;durP2;ratioP2;P2;SDS_P1;SDS_P2;PMS_P1;PMS_P2;Temp;Humidity;BMP_temperature;BMP_pressure;BME280_temperature;BME280_humidity;BME280_pressure;Samples;Min_cycle;Max_cycle;Signal;HPM_P1;HPM_P2
2022/10/29 00:00:49;;;;;;;15.90;9.38;;;;;;;;;;5115100;28;20024;-85
2022/10/29 00:03:15;;;;;;;17.23;8.63;;;;;;;;;;5114787;28;20028;-84
2022/10/29 00:05:41;;;;;;;12.80;8.13;;;;;;;;;;5114975;28;20028;-85
2022/10/29 00:08:07;;;;;;;15.40;8.73;;;;;;;;;;5114782;28;20489;-87
2022/10/29 00:10:33;;;;;;;15.30;9.13;;;;;;;;;;5114539;28;20023;-84
2022/10/29 00:13:01;;;;;;;13.52;9.05;;;;;;;;;;5114765;28;20023;-87
2022/10/29 00:15:27;;;;;;;13.98;8.73;;;;;;;;;;5114516;28;20104;-84
2022/10/29 00:17:53;;;;;;;17.30;11.02;;;;;;;;;;5096467;28;20471;-81
2022/10/29 00:20:20;;;;;;;17.08;9.90;;;;;;;;;;5114487;28;20028;-89
2022/10/29 00:22:47;;;;;;;15.27;9.25;;;;;;;;;;5096420;28;20024;-86
2022/10/29 00:25:13;;;;;;;18.00;9.63;;;;;;;;;;5114438;28;20387;-85
2022/10/29 00:27:39;;;;;;;16.67;9.02;;;;;;;;;;5114245;28;20128;-84
2022/10/29 00:30:05;;;;;;;15.60;8.85;;;;;;;;;;5114375;28;20027;-85
2022/10/29 00:32:31;;;;;;;13.52;8.35;;;;;;;;;;5114328;28;20024;-87
2022/10/29 00:34:57;;;;;;;14.50;8.57;;;;;;;;;;5114490;28;20039;-83
2022/10/29 00:37:23;;;;;;;14.27;8.90;;;;;;;;;;5114235;28;20032;-86
2022/10/29 00:39:49;;;;;;;14.48;8.80;;;;;;;;;;5114069;28;20055;-86
2022/10/29 00:42:16;;;;;;;16.00;8.75;;;;;;;;;;5114174;28;20367;-84
2022/10/29 00:44:42;;;;;;;13.73;7.50;;;;;;;;;;5114257;28;20438;-86
2022/10/29 00:47:27;;;;;;;12.40;8.20;;;;;;;;;;5114022;28;20034;-87
2022/10/29 00:49:56;;;;;;;13.90;8.82;;;;;;;;;;5114151;28;20027;-86
2022/10/29 00:52:24;;;;;;;14.48;7.90;;;;;;;;;;5113572;28;20082;-81
2022/10/29 00:54:51;;;;;;;13.95;8.90;;;;;;;;;;5114088;28;20071;-84
2022/10/29 00:57:20;;;;;;;17.35;9.43;;;;;;;;;;5113287;28;20016;-83
2022/10/29 00:59:47;;;;;;;13.32;7.40;;;;;;;;;;5113855;28;20023;-87
2022/10/29 01:02:14;;;;;;;12.48;7.32;;;;;;;;;;5095512;28;20024;-86
2022/10/29 01:04:41;;;;;;;14.63;8.38;;;;;;;;;;5095631;28;20016;-86
2022/10/29 01:07:07;;;;;;;11.88;8.32;;;;;;;;;;5095666;28;20499;-87
2022/10/29 01:09:33;;;;;;;14.00;8.18;;;;;;;;;;5113969;28;20404;-86
2022/10/29 01:12:18;;;;;;;9.65;7.68;;;;;;;;;;5113902;28;20458;-87
2022/10/29 01:14:56;;;;;;;15.88;9.40;;;;;;;;;;5095358;28;20111;-85
2022/10/29 01:17:41;;;;;;;16.83;9.80;;;;;;;;;;5113553;28;20020;-85
2022/10/29 01:20:07;;;;;;;;;;;;;;;;;;5113883;28;20023;-87
2022/10/29 01:22:55;;;;;;;13.02;8.70;;;;;;;;;;5113412;28;19910;-87
2022/10/29 01:25:40;;;;;;;11.63;8.07;;;;;;;;;;5113258;28;20382;-87
2022/10/29 01:28:24;;;;;;;14.70;8.93;;;;;;;;;;5113308;28;20106;-83
2022/10/29 01:31:00;;;;;;;12.98;8.63;;;;;;;;;;5113205;28;20078;-87
2022/10/29 01:33:36;;;;;;;10.75;7.50;;;;;;;;;;5094951;28;20031;-86
2022/10/29 01:36:11;;;;;;;12.25;8.15;;;;;;;;;;5113506;28;20082;-83
2022/10/29 01:38:49;;;;;;;12.82;7.95;;;;;;;;;;5113171;28;20433;-86
2022/10/29 01:41:21;;;;;;;10.38;6.78;;;;;;;;;;5113322;28;20027;-85
2022/10/29 01:43:47;;;;;;;12.60;8.13;;;;;;;;;;5113532;28;20032;-86
2022/10/29 01:46:33;;;;;;;11.65;7.00;;;;;;;;;;5094917;28;20031;-86
2022/10/29 01:49:02;;;;;;;10.10;7.32;;;;;;;;;;5094872;28;20016;-82
2022/10/29 01:51:30;;;;;;;10.85;7.25;;;;;;;;;;5113075;28;20055;-88
2022/10/29 01:53:57;;;;;;;18.80;10.35;;;;;;;;;;5095064;28;20118;-83
2022/10/29 01:56:23;;;;;;;21.02;10.68;;;;;;;;;;5113028;28;20505;-86
2022/10/29 01:58:51;;;;;;;23.25;12.23;;;;;;;;;;5113181;28;20051;-83
2022/10/29 02:01:23;;;;;;;23.80;12.25;;;;;;;;;;5112839;28;20047;-86
2022/10/29 02:03:52;;;;;;;20.85;12.68;;;;;;;;;;5094804;28;20089;-89
2022/10/29 02:06:37;;;;;;;21.83;12.93;;;;;;;;;;5113135;28;20102;-82
2022/10/29 02:09:03;;;;;;;;;;;;;;;;;;5114611;28;20047;-88
2022/10/29 02:11:38;;;;;;;27.67;14.18;;;;;;;;;;5117289;28;20255;-86
2022/10/29 02:14:07;;;;;;;29.58;15.40;;;;;;;;;;5117049;28;20026;-84
2022/10/29 02:16:33;;;;;;;23.98;12.68;;;;;;;;;;5117124;28;20364;-84
2022/10/29 02:19:00;;;;;;;20.48;12.45;;;;;;;;;;5117140;28;20051;-86
2022/10/29 02:21:26;;;;;;;19.77;12.00;;;;;;;;;;5116955;28;20020;-86
2022/10/29 02:23:52;;;;;;;26.30;12.98;;;;;;;;;;5116890;28;20103;-87
2022/10/29 02:26:18;;;;;;;22.55;12.65;;;;;;;;;;5116899;28;20028;-84
2022/10/29 02:28:44;;;;;;;22.83;12.18;;;;;;;;;;5116807;28;20483;-85
2022/10/29 02:31:10;;;;;;;17.25;11.20;;;;;;;;;;5116950;28;20035;-84
2022/10/29 02:33:37;;;;;;;18.58;11.20;;;;;;;;;;5116918;28;20019;-85
2022/10/29 02:36:03;;;;;;;18.92;10.43;;;;;;;;;;5116834;28;20035;-83
2022/10/29 02:38:29;;;;;;;16.63;10.07;;;;;;;;;;5116651;28;20034;-84
2022/10/29 02:40:55;;;;;;;17.38;9.93;;;;;;;;;;5116510;28;20020;-83
2022/10/29 02:43:21;;;;;;;16.80;10.30;;;;;;;;;;5116646;28;20049;-88
2022/10/29 02:45:47;;;;;;;15.88;9.20;;;;;;;;;;5116623;28;20024;-86
2022/10/29 02:48:13;;;;;;;14.80;9.02;;;;;;;;;;5116691;28;20046;-86
2022/10/29 02:50:39;;;;;;;12.93;8.60;;;;;;;;;;5116568;28;20038;-84
2022/10/29 02:53:05;;;;;;;13.35;8.40;;;;;;;;;;5116101;28;20047;-85
2022/10/29 02:55:31;;;;;;;12.60;9.07;;;;;;;;;;5116340;28;20031;-86
2022/10/29 02:57:57;;;;;;;11.52;8.48;;;;;;;;;;5116387;28;20020;-84
2022/10/29 03:00:23;;;;;;;9.82;7.00;;;;;;;;;;5098172;28;20019;-86
2022/10/29 03:02:51;;;;;;;12.00;8.02;;;;;;;;;;5116214;28;20023;-83
2022/10/29 03:05:17;;;;;;;9.95;7.90;;;;;;;;;;5116197;28;20015;-85
2022/10/29 03:07:43;;;;;;;12.02;9.18;;;;;;;;;;5116164;28;20035;-82
2022/10/29 03:10:09;;;;;;;18.35;12.07;;;;;;;;;;5116171;28;20024;-84
2022/10/29 03:12:36;;;;;;;16.80;10.70;;;;;;;;;;5116149;28;20020;-86
2022/10/29 03:15:02;;;;;;;18.13;11.65;;;;;;;;;;5115870;28;20153;-87
2022/10/29 03:17:28;;;;;;;21.20;11.70;;;;;;;;;;5116104;28;20394;-86
2022/10/29 03:19:54;;;;;;;20.70;12.15;;;;;;;;;;5115880;28;20077;-84
2022/10/29 03:22:20;;;;;;;19.63;12.52;;;;;;;;;;5115091;28;20426;-88
2022/10/29 03:24:46;;;;;;;15.80;10.23;;;;;;;;;;5115883;28;20098;-83
2022/10/29 03:27:12;;;;;;;17.85;9.95;;;;;;;;;;5115619;28;20031;-87
2022/10/29 03:29:38;;;;;;;15.02;10.15;;;;;;;;;;5115787;28;20016;-85
2022/10/29 03:32:04;;;;;;;15.95;11.32;;;;;;;;;;5115655;28;20019;-86
2022/10/29 03:34:30;;;;;;;14.02;9.48;;;;;;;;;;5097238;28;20547;-86
2022/10/29 03:36:56;;;;;;;15.18;9.63;;;;;;;;;;5115592;28;20020;-84
2022/10/29 03:39:22;;;;;;;14.75;9.35;;;;;;;;;;5115608;28;20028;-86
2022/10/29 03:41:48;;;;;;;18.63;9.43;;;;;;;;;;5115560;28;20026;-84
2022/10/29 03:44:14;;;;;;;13.77;9.85;;;;;;;;;;5115169;28;20450;-87
2022/10/29 03:46:41;;;;;;;12.70;9.45;;;;;;;;;;5097018;28;20050;-84
2022/10/29 03:49:07;;;;;;;16.17;9.75;;;;;;;;;;5097031;28;20023;-83
2022/10/29 03:51:33;;;;;;;13.02;9.45;;;;;;;;;;5096880;28;20039;-82
2022/10/29 03:53:59;;;;;;;14.70;9.35;;;;;;;;;;5096990;28;20508;-86
2022/10/29 03:56:25;;;;;;;14.13;9.30;;;;;;;;;;5082842;28;20060;-85
2022/10/29 03:58:51;;;;;;;26.25;17.70;;;;;;;;;;5074482;28;20043;-84
2022/10/29 04:01:17;;;;;;;33.83;24.73;;;;;;;;;;5074461;28;20029;-87
2022/10/29 04:03:43;;;;;;;12.88;8.15;;;;;;;;;;5074317;28;20021;-84
2022/10/29 04:06:11;;;;;;;12.57;8.65;;;;;;;;;;5085880;28;20059;-85
2022/10/29 04:08:37;;;;;;;12.05;7.90;;;;;;;;;;5076531;28;20066;-87
2022/10/29 04:11:03;;;;;;;13.27;8.38;;;;;;;;;;5090816;28;20012;-86
2022/10/29 04:13:29;;;;;;;20.42;14.75;;;;;;;;;;5088685;28;20486;-86
2022/10/29 04:15:56;;;;;;;11.75;8.82;;;;;;;;;;5094064;28;20028;-85
2022/10/29 04:18:22;;;;;;;12.63;8.48;;;;;;;;;;5093765;28;20025;-87
2022/10/29 04:20:48;;;;;;;14.23;9.07;;;;;;;;;;5093922;28;20536;-85
2022/10/29 04:23:14;;;;;;;15.25;10.25;;;;;;;;;;5055996;28;20103;-86
2022/10/29 04:25:41;;;;;;;23.63;16.38;;;;;;;;;;5073983;28;20047;-86
2022/10/29 04:28:07;;;;;;;18.42;11.02;;;;;;;;;;5094168;28;20055;-87
2022/10/29 04:30:33;;;;;;;16.15;10.90;;;;;;;;;;5094179;28;20020;-85
2022/10/29 04:32:59;;;;;;;13.57;10.73;;;;;;;;;;5074716;28;20480;-86
2022/10/29 04:35:26;;;;;;;13.90;8.82;;;;;;;;;;5073706;28;20024;-87
2022/10/29 04:37:55;;;;;;;14.55;10.15;;;;;;;;;;5077566;28;20548;-87
2022/10/29 04:40:23;;;;;;;14.15;9.95;;;;;;;;;;5093777;28;20028;-87
2022/10/29 04:42:49;;;;;;;13.80;9.18;;;;;;;;;;5075410;28;20453;-86
2022/10/29 04:45:15;;;;;;;15.55;10.70;;;;;;;;;;5093869;28;20091;-87
2022/10/29 04:47:41;;;;;;;13.88;10.00;;;;;;;;;;5093491;28;20122;-83
2022/10/29 04:50:07;;;;;;;14.65;10.60;;;;;;;;;;5093553;28;20016;-84
2022/10/29 04:52:33;;;;;;;14.80;9.60;;;;;;;;;;5091197;28;20127;-84
2022/10/29 04:54:59;;;;;;;19.33;12.40;;;;;;;;;;5093856;28;20023;-86
2022/10/29 04:57:26;;;;;;;18.58;14.90;;;;;;;;;;5110044;28;20027;-85
2022/10/29 04:59:52;;;;;;;26.55;17.75;;;;;;;;;;5114012;28;20084;-85
2022/10/29 05:02:18;;;;;;;24.77;17.48;;;;;;;;;;5100726;28;20035;-89
2022/10/29 05:04:44;;;;;;;20.30;15.48;;;;;;;;;;5093451;28;20054;-89
2022/10/29 05:07:10;;;;;;;24.45;15.38;;;;;;;;;;5100128;28;20024;-85
2022/10/29 05:09:36;;;;;;;23.95;14.63;;;;;;;;;;5107004;28;20474;-85
2022/10/29 05:12:02;;;;;;;25.48;13.70;;;;;;;;;;5093679;28;20016;-86
2022/10/29 05:14:28;;;;;;;19.80;14.43;;;;;;;;;;5093492;28;20020;-86
2022/10/29 05:16:54;;;;;;;19.70;14.13;;;;;;;;;;5093141;28;20463;-88
2022/10/29 05:19:20;;;;;;;22.83;16.25;;;;;;;;;;5107928;28;20038;-86
2022/10/29 05:21:46;;;;;;;25.40;15.30;;;;;;;;;;5113405;28;20023;-86
2022/10/29 05:24:12;;;;;;;21.85;14.98;;;;;;;;;;5097768;28;20443;-85
2022/10/29 05:26:38;;;;;;;17.17;12.43;;;;;;;;;;5113430;28;20470;-87
2022/10/29 05:29:04;;;;;;;17.73;11.50;;;;;;;;;;5094376;28;20024;-88
2022/10/29 05:31:30;;;;;;;17.00;12.93;;;;;;;;;;5091732;28;20020;-84
2022/10/29 05:33:57;;;;;;;16.25;12.45;;;;;;;;;;5092925;28;20107;-86
2022/10/29 05:36:23;;;;;;;21.13;14.40;;;;;;;;;;5102400;28;20062;-84
2022/10/29 05:38:49;;;;;;;27.52;19.95;;;;;;;;;;5111688;28;20059;-87
2022/10/29 05:41:15;;;;;;;37.08;29.52;;;;;;;;;;5111831;28;20019;-84
2022/10/29 05:43:41;;;;;;;27.42;23.27;;;;;;;;;;5112558;28;20073;-86
2022/10/29 05:46:07;;;;;;;31.40;26.23;;;;;;;;;;5112937;28;20032;-86
2022/10/29 05:48:33;;;;;;;30.95;27.52;;;;;;;;;;5113212;28;20023;-84
2022/10/29 05:50:59;;;;;;;38.65;34.50;;;;;;;;;;5110470;28;20016;-81
2022/10/29 05:53:25;;;;;;;38.50;34.45;;;;;;;;;;5111462;28;20449;-86
2022/10/29 05:55:51;;;;;;;25.60;18.77;;;;;;;;;;5113174;28;20027;-86
2022/10/29 05:58:17;;;;;;;26.25;21.15;;;;;;;;;;5113389;28;20023;-86
2022/10/29 06:00:44;;;;;;;30.52;21.30;;;;;;;;;;5112756;28;20043;-89
2022/10/29 06:03:14;;;;;;;102.00;61.13;;;;;;;;;;5113375;28;20463;-81
2022/10/29 06:05:41;;;;;;;72.93;47.63;;;;;;;;;;5112988;28;20242;-83
2022/10/29 06:08:07;;;;;;;59.90;42.08;;;;;;;;;;5113037;28;20032;-83
2022/10/29 06:10:33;;;;;;;64.15;43.55;;;;;;;;;;5111460;28;20539;-82
2022/10/29 06:12:59;;;;;;;67.90;45.45;;;;;;;;;;5112870;28;20040;-82
2022/10/29 06:15:25;;;;;;;125.30;70.40;;;;;;;;;;5111598;28;20023;-85
2022/10/29 06:17:51;;;;;;;95.97;55.15;;;;;;;;;;5111332;28;20019;-84
2022/10/29 06:20:19;;;;;;;118.88;65.88;;;;;;;;;;5112964;28;20054;-86
2022/10/29 06:22:46;;;;;;;153.20;75.35;;;;;;;;;;5112525;28;20022;-83
2022/10/29 06:25:12;;;;;;;126.85;66.72;;;;;;;;;;5112978;28;20023;-83
2022/10/29 06:27:38;;;;;;;61.20;34.35;;;;;;;;;;5110900;28;20114;-84
2022/10/29 06:30:05;;;;;;;48.20;30.83;;;;;;;;;;5112652;28;20024;-83
2022/10/29 06:32:31;;;;;;;63.88;37.03;;;;;;;;;;5112572;28;20024;-83
2022/10/29 06:34:57;;;;;;;36.15;24.67;;;;;;;;;;5103336;28;20032;-81
2022/10/29 06:37:23;;;;;;;25.30;22.35;;;;;;;;;;5092042;28;20028;-82
2022/10/29 06:39:49;;;;;;;24.80;18.90;;;;;;;;;;5092081;28;20032;-81
2022/10/29 06:42:15;;;;;;;27.92;21.80;;;;;;;;;;5092149;28;20472;-82
2022/10/29 06:44:41;;;;;;;31.38;24.00;;;;;;;;;;5097313;28;20038;-80
2022/10/29 06:47:07;;;;;;;32.90;23.15;;;;;;;;;;5112459;28;20030;-81
2022/10/29 06:49:33;;;;;;;31.17;22.17;;;;;;;;;;5111119;28;20072;-83
2022/10/29 06:51:59;;;;;;;51.35;30.80;;;;;;;;;;5111553;28;20056;-82
2022/10/29 06:54:25;;;;;;;39.88;24.83;;;;;;;;;;5109294;28;20021;-82
2022/10/29 06:56:51;;;;;;;49.15;31.05;;;;;;;;;;5115883;28;20102;-83
2022/10/29 06:59:18;;;;;;;39.63;25.48;;;;;;;;;;5115856;28;20073;-84
2022/10/29 07:01:45;;;;;;;33.35;23.35;;;;;;;;;;5096039;28;20027;-82
2022/10/29 07:04:11;;;;;;;29.15;18.38;;;;;;;;;;5095754;28;20016;-82
2022/10/29 07:06:37;;;;;;;19.65;13.55;;;;;;;;;;5095338;28;20020;-81
2022/10/29 07:09:03;;;;;;;15.48;11.98;;;;;;;;;;5095467;28;20026;-82
2022/10/29 07:11:29;;;;;;;12.40;9.13;;;;;;;;;;5111989;28;20471;-83
2022/10/29 07:13:55;;;;;;;11.27;9.48;;;;;;;;;;5115729;28;20102;-84
2022/10/29 07:16:21;;;;;;;17.75;11.20;;;;;;;;;;5115626;28;20039;-83
2022/10/29 07:18:47;;;;;;;13.80;10.25;;;;;;;;;;5115664;28;20115;-81
2022/10/29 07:21:13;;;;;;;16.08;11.32;;;;;;;;;;5100687;28;20039;-81
2022/10/29 07:23:39;;;;;;;28.08;17.00;;;;;;;;;;5095463;28;20052;-82
2022/10/29 07:26:05;;;;;;;21.73;13.80;;;;;;;;;;5094893;28;20527;-82
2022/10/29 07:28:31;;;;;;;11.23;8.50;;;;;;;;;;5095080;28;20043;-83
2022/10/29 07:30:59;;;;;;;14.15;11.13;;;;;;;;;;5106499;28;20058;-83
2022/10/29 07:33:25;;;;;;;32.28;25.95;;;;;;;;;;5115437;28;20024;-81
2022/10/29 07:35:51;;;;;;;23.30;15.20;;;;;;;;;;5115469;28;20745;-82
2022/10/29 07:38:17;;;;;;;13.50;9.05;;;;;;;;;;5115142;28;20040;-81
2022/10/29 07:40:47;;;;;;;14.43;8.70;;;;;;;;;;5106391;28;20027;-82
2022/10/29 07:43:13;;;;;;;12.05;7.82;;;;;;;;;;5093059;28;20764;-83
2022/10/29 07:45:40;;;;;;;13.27;8.77;;;;;;;;;;5094924;28;20101;-84
2022/10/29 07:48:06;;;;;;;14.73;10.25;;;;;;;;;;5093096;28;20036;-81
2022/10/29 07:50:33;;;;;;;16.73;11.48;;;;;;;;;;5099923;28;20028;-84
2022/10/29 07:53:00;;;;;;;13.02;9.77;;;;;;;;;;5114575;28;20118;-84
2022/10/29 07:55:26;;;;;;;12.80;9.80;;;;;;;;;;5115089;28;20027;-83
2022/10/29 07:58:01;;;;;;;14.82;9.65;;;;;;;;;;5114986;28;20040;-82
2022/10/29 08:00:31;;;;;;;14.45;8.23;;;;;;;;;;5108262;28;20111;-81
2022/10/29 08:02:57;;;;;;;13.30;9.73;;;;;;;;;;5094755;28;20012;-82
2022/10/29 08:05:24;;;;;;;11.95;8.23;;;;;;;;;;5094271;28;20073;-81
2022/10/29 08:07:50;;;;;;;14.70;7.53;;;;;;;;;;5094215;28;20050;-84
2022/10/29 08:10:16;;;;;;;12.07;7.63;;;;;;;;;;5097149;28;20062;-81
2022/10/29 08:12:52;;;;;;;12.05;8.02;;;;;;;;;;5114568;28;20023;-83
2022/10/29 08:15:19;;;;;;;10.43;7.32;;;;;;;;;;5113059;28;20372;-84
2022/10/29 08:17:46;;;;;;;13.80;9.85;;;;;;;;;;5114664;28;20111;-81
2022/10/29 08:20:12;;;;;;;11.63;7.20;;;;;;;;;;5114171;28;20433;-82
2022/10/29 08:22:38;;;;;;;11.93;7.30;;;;;;;;;;5114296;28;20475;-82
2022/10/29 08:25:04;;;;;;;10.68;8.20;;;;;;;;;;5114316;28;20035;-81
2022/10/29 08:27:30;;;;;;;9.32;6.88;;;;;;;;;;5112487;28;20020;-82
2022/10/29 08:29:56;;;;;;;12.45;6.65;;;;;;;;;;5114403;28;20020;-83
2022/10/29 08:32:22;;;;;;;10.18;6.47;;;;;;;;;;5114365;28;20064;-81
2022/10/29 08:34:49;;;;;;;10.30;6.40;;;;;;;;;;5113876;28;20032;-81
2022/10/29 08:37:15;;;;;;;15.23;9.23;;;;;;;;;;5113934;28;20387;-81
2022/10/29 08:39:41;;;;;;;12.95;9.13;;;;;;;;;;5112183;28;20035;-80
2022/10/29 08:42:07;;;;;;;13.95;8.32;;;;;;;;;;5114093;28;20106;-81
2022/10/29 08:44:51;;;;;;;9.75;6.88;;;;;;;;;;5114032;28;20035;-81
2022/10/29 08:47:36;;;;;;;16.90;7.32;;;;;;;;;;5113687;28;20385;-81
2022/10/29 08:50:14;;;;;;;10.48;6.85;;;;;;;;;;5093541;28;20070;-80
2022/10/29 08:52:42;;;;;;;11.43;7.30;;;;;;;;;;5093006;28;20060;-81
2022/10/29 08:55:26;;;;;;;12.48;7.30;;;;;;;;;;5092300;28;20028;-81
2022/10/29 08:58:03;;;;;;;11.18;7.88;;;;;;;;;;5093487;28;20063;-80
2022/10/29 09:00:35;;;;;;;12.13;7.75;;;;;;;;;;5093284;28;20471;-80
2022/10/29 09:03:01;;;;;;;12.18;8.40;;;;;;;;;;5093480;28;20031;-81
2022/10/29 09:05:35;;;;;;;12.32;8.13;;;;;;;;;;5100318;28;20027;-81
2022/10/29 09:08:16;;;;;;;9.80;8.40;;;;;;;;;;5113376;28;20019;-81
2022/10/29 09:10:45;;;;;;;11.00;8.55;;;;;;;;;;5112736;27;20026;-81
2022/10/29 09:13:11;;;;;;;13.63;9.35;;;;;;;;;;5113474;28;20024;-81
2022/10/29 09:15:40;;;;;;;9.88;8.60;;;;;;;;;;5125026;27;20034;-81
2022/10/29 09:18:25;;;;;;;9.45;8.18;;;;;;;;;;5133621;27;20030;-80
2022/10/29 09:20:51;;;;;;;;;;;;;;;;;;5127945;27;20038;-81
2022/10/29 09:23:36;;;;;;;11.13;8.32;;;;;;;;;;5113275;28;19904;-81
2022/10/29 09:26:02;;;;;;;;;;;;;;;;;;5117058;27;20034;-80
2022/10/29 09:28:52;;;;;;;11.52;7.63;;;;;;;;;;5116724;27;19915;-81
2022/10/29 09:31:18;;;;;;;9.77;7.60;;;;;;;;;;5113046;28;20062;-81
2022/10/29 09:33:46;;;;;;;9.90;7.18;;;;;;;;;;5113237;28;20031;-81
2022/10/29 09:36:17;;;;;;;10.38;8.10;;;;;;;;;;5113228;27;20059;-81
2022/10/29 09:39:02;;;;;;;9.50;8.18;;;;;;;;;;5133376;27;20038;-81
2022/10/29 09:41:32;;;;;;;11.40;8.30;;;;;;;;;;5133316;27;20080;-81
2022/10/29 09:44:06;;;;;;;12.13;8.05;;;;;;;;;;5115503;27;20030;-81
2022/10/29 09:46:50;;;;;;;9.95;7.65;;;;;;;;;;5131127;27;20110;-81
2022/10/29 09:49:35;;;;;;;8.20;7.30;;;;;;;;;;5132175;27;20019;-81
2022/10/29 09:52:22;;;;;;;9.00;8.00;;;;;;;;;;5133129;28;20047;-81
2022/10/29 09:54:49;;;;;;;8.52;7.55;;;;;;;;;;5133435;28;20034;-81
2022/10/29 09:57:18;;;;;;;12.52;8.07;;;;;;;;;;5126951;28;20028;-81
2022/10/29 09:59:48;;;;;;;12.65;9.27;;;;;;;;;;5112719;28;20471;-80
2022/10/29 10:02:40;;;;;;;11.93;7.97;;;;;;;;;;5112751;28;20024;-81
2022/10/29 10:05:12;;;;;;;8.73;7.38;;;;;;;;;;5089319;28;20114;-80
2022/10/29 10:07:39;;;;;;;8.23;7.40;;;;;;;;;;5121367;28;20055;-80
2022/10/29 10:10:25;;;;;;;8.13;6.85;;;;;;;;;;5133358;28;20099;-80
2022/10/29 10:12:52;;;;;;;8.05;6.55;;;;;;;;;;5132989;28;20027;-80
2022/10/29 10:15:27;;;;;;;7.18;6.40;;;;;;;;;;5133113;28;20019;-81
2022/10/29 10:17:55;;;;;;;7.95;6.00;;;;;;;;;;5131492;28;20382;-81
2022/10/29 10:20:29;;;;;;;8.75;7.03;;;;;;;;;;5133164;28;20466;-80
2022/10/29 10:22:55;;;;;;;10.45;8.10;;;;;;;;;;5133039;28;20023;-80
2022/10/29 10:25:32;;;;;;;9.05;6.43;;;;;;;;;;5133114;28;20084;-80
2022/10/29 10:27:58;;;;;;;7.82;6.95;;;;;;;;;;5132840;28;20038;-81
2022/10/29 10:30:25;;;;;;;9.20;6.80;;;;;;;;;;5133029;27;20030;-80
2022/10/29 10:32:51;;;;;;;8.45;6.13;;;;;;;;;;5136970;27;20030;-80
2022/10/29 10:35:25;;;;;;;7.72;5.75;;;;;;;;;;5137099;27;20015;-80
2022/10/29 10:37:51;;;;;;;6.00;4.70;;;;;;;;;;5098975;28;20370;-80
2022/10/29 10:40:36;;;;;;;5.15;4.43;;;;;;;;;;5116523;28;20027;-81
2022/10/29 10:43:02;;;;;;;5.32;3.80;;;;;;;;;;5098265;28;20027;-81
2022/10/29 10:45:33;;;;;;;4.70;4.15;;;;;;;;;;5097926;28;20161;-81
2022/10/29 10:48:00;;;;;;;5.18;4.68;;;;;;;;;;5116331;28;20036;-81
2022/10/29 10:50:28;;;;;;;6.38;4.63;;;;;;;;;;5116213;28;20016;-81
2022/10/29 10:52:55;;;;;;;5.28;4.78;;;;;;;;;;5115857;28;20051;-81
2022/10/29 10:55:25;;;;;;;5.88;4.40;;;;;;;;;;5115942;28;20027;-80
2022/10/29 10:57:57;;;;;;;11.85;7.25;;;;;;;;;;5135322;27;20035;-81
2022/10/29 11:00:24;;;;;;;7.45;5.40;;;;;;;;;;5136380;27;20026;-81
2022/10/29 11:03:08;;;;;;;10.48;7.75;;;;;;;;;;5136537;27;20030;-80
2022/10/29 11:05:37;;;;;;;7.85;5.13;;;;;;;;;;5136143;27;20023;-81
2022/10/29 11:08:29;;;;;;;5.50;3.65;;;;;;;;;;5119453;27;20027;-80
2022/10/29 11:10:57;;;;;;;5.78;3.30;;;;;;;;;;5113373;27;20039;-79
2022/10/29 11:13:24;;;;;;;4.50;3.17;;;;;;;;;;5115797;27;20028;-80
2022/10/29 11:15:50;;;;;;;3.65;3.10;;;;;;;;;;5126231;27;20019;-80
2022/10/29 11:18:24;;;;;;;5.30;4.28;;;;;;;;;;5136308;27;20023;-80
2022/10/29 11:20:59;;;;;;;5.85;3.90;;;;;;;;;;5136075;27;20051;-80
2022/10/29 11:23:37;;;;;;;7.80;4.40;;;;;;;;;;5136169;27;20023;-78
2022/10/29 11:26:08;;;;;;;5.40;4.20;;;;;;;;;;5129676;27;20424;-78
2022/10/29 11:28:34;;;;;;;5.57;3.70;;;;;;;;;;5135799;27;20019;-79
2022/10/29 11:31:19;;;;;;;7.55;3.95;;;;;;;;;;5135928;27;20050;-79
2022/10/29 11:33:45;;;;;;;;;;;;;;;;;;5136232;27;20482;-78
2022/10/29 11:36:16;;;;;;;4.53;3.60;;;;;;;;;;5135643;27;20023;-81
2022/10/29 11:38:46;;;;;;;22.60;12.80;;;;;;;;;;5135898;27;20019;-81
2022/10/29 11:41:33;;;;;;;10.00;7.60;;;;;;;;;;5135362;27;20030;-79
2022/10/29 11:43:59;;;;;;;6.03;5.38;;;;;;;;;;5130864;27;20491;-81
2022/10/29 11:46:25;;;;;;;4.70;4.30;;;;;;;;;;5114938;28;20034;-80
2022/10/29 11:49:10;;;;;;;6.30;4.32;;;;;;;;;;5116249;27;20047;-81
2022/10/29 11:51:54;;;;;;;6.13;4.38;;;;;;;;;;5135150;27;20047;-80
2022/10/29 11:54:20;;;;;;;;;;;;;;;;;;5134497;27;20027;-81
2022/10/29 11:56:52;;;;;;;5.78;5.13;;;;;;;;;;5135347;27;19949;-81
2022/10/29 11:59:36;;;;;;;7.10;5.80;;;;;;;;;;5133408;27;20026;-80
2022/10/29 12:02:02;;;;;;;;;;;;;;;;;;5132461;27;20023;-80
2022/10/29 12:04:45;;;;;;;7.78;5.95;;;;;;;;;;5135249;27;20007;-79
2022/10/29 12:07:30;;;;;;;8.23;6.90;;;;;;;;;;5116707;27;20050;-80
2022/10/29 12:09:56;;;;;;;5.55;4.97;;;;;;;;;;5135031;27;20019;-79
2022/10/29 12:12:30;;;;;;;6.40;4.53;;;;;;;;;;5135147;27;20019;-81
2022/10/29 12:14:56;;;;;;;;;;;;;;;;;;5135389;27;20094;-79
2022/10/29 12:17:28;;;;;;;7.50;3.80;;;;;;;;;;5135036;27;19950;-82
2022/10/29 12:20:00;;;;;;;5.22;3.75;;;;;;;;;;5114332;28;20478;-78
2022/10/29 12:22:45;;;;;;;4.47;3.70;;;;;;;;;;5114227;28;20024;-80
2022/10/29 12:25:23;;;;;;;6.15;3.70;;;;;;;;;;5128011;27;20393;-84
2022/10/29 12:27:49;;;;;;;4.10;3.28;;;;;;;;;;5132186;27;20023;-80
2022/10/29 12:30:17;;;;;;;8.07;4.50;;;;;;;;;;5134083;27;20026;-82
2022/10/29 12:33:02;;;;;;;6.18;3.92;;;;;;;;;;5134119;27;20023;-77
2022/10/29 12:35:28;;;;;;;3.72;3.22;;;;;;;;;;5131697;27;20019;-81
2022/10/29 12:38:02;;;;;;;3.53;2.70;;;;;;;;;;5133810;27;20550;-80
2022/10/29 12:40:30;;;;;;;7.18;2.88;;;;;;;;;;5133885;27;20106;-78
2022/10/29 12:42:57;;;;;;;6.13;3.10;;;;;;;;;;5133805;27;20023;-81
2022/10/29 12:45:26;;;;;;;4.72;3.58;;;;;;;;;;5133994;27;20021;-78
2022/10/29 12:48:11;;;;;;;4.25;3.05;;;;;;;;;;5130871;27;20108;-81
2022/10/29 12:50:43;;;;;;;3.85;2.88;;;;;;;;;;5134073;27;20019;-82
2022/10/29 12:53:19;;;;;;;5.32;2.80;;;;;;;;;;5133598;27;20047;-81
2022/10/29 12:55:46;;;;;;;5.60;3.80;;;;;;;;;;5134184;27;20022;-80
2022/10/29 12:58:30;;;;;;;8.73;3.63;;;;;;;;;;5134199;27;20023;-79
2022/10/29 13:00:56;;;;;;;;;;;;;;;;;;5134036;27;20030;-81
2022/10/29 13:03:42;;;;;;;4.30;2.67;;;;;;;;;;5133376;27;19978;-80
2022/10/29 13:06:26;;;;;;;3.45;2.85;;;;;;;;;;5132624;27;20015;-81
2022/10/29 13:08:56;;;;;;;3.55;2.78;;;;;;;;;;5125103;27;20090;-81
2022/10/29 13:11:23;;;;;;;4.25;2.75;;;;;;;;;;5133576;27;20030;-80
2022/10/29 13:13:54;;;;;;;3.50;2.90;;;;;;;;;;5133018;27;20296;-80
2022/10/29 13:16:21;;;;;;;3.20;2.28;;;;;;;;;;5114906;27;20562;-80
2022/10/29 13:19:06;;;;;;;4.35;3.08;;;;;;;;;;5132997;27;20509;-80
2022/10/29 13:21:32;;;;;;;;;;;;;;;;;;5134063;27;20024;-80
2022/10/29 13:24:02;;;;;;;3.92;3.05;;;;;;;;;;5133806;27;19903;-80
2022/10/29 13:26:46;;;;;;;4.03;3.17;;;;;;;;;;5133398;27;20080;-83
2022/10/29 13:29:32;;;;;;;6.28;3.95;;;;;;;;;;5133577;27;20015;-78
2022/10/29 13:32:01;;;;;;;4.30;3.28;;;;;;;;;;5133293;27;20498;-80
2022/10/29 13:34:46;;;;;;;4.68;3.40;;;;;;;;;;5133701;27;20489;-80
2022/10/29 13:37:11;;;;;;;;;;;;;;;;;;5134015;27;20070;-81
2022/10/29 13:39:38;;;;;;;5.55;3.67;;;;;;;;;;5133304;27;19953;-80
2022/10/29 13:42:07;;;;;;;5.88;4.75;;;;;;;;;;5133563;27;20390;-82
2022/10/29 13:44:34;;;;;;;5.20;3.05;;;;;;;;;;5133237;27;20023;-82
2022/10/29 13:47:19;;;;;;;6.82;4.30;;;;;;;;;;5133397;27;20047;-79
2022/10/29 13:49:46;;;;;;;8.07;4.75;;;;;;;;;;5133325;27;20022;-82
2022/10/29 13:52:17;;;;;;;6.57;3.20;;;;;;;;;;5133233;27;20047;-81
2022/10/29 13:54:43;;;;;;;4.22;2.92;;;;;;;;;;5133342;28;20106;-79
2022/10/29 13:57:27;;;;;;;5.20;3.60;;;;;;;;;;5133240;28;20030;-79
2022/10/29 14:00:08;;;;;;;5.97;3.90;;;;;;;;;;5114724;28;20473;-82
2022/10/29 14:02:45;;;;;;;9.20;5.40;;;;;;;;;;5133251;28;20020;-83
2022/10/29 14:05:11;;;;;;;5.78;3.90;;;;;;;;;;5134577;27;20020;-81
2022/10/29 14:07:46;;;;;;;6.35;4.60;;;;;;;;;;5137384;27;20030;-82
2022/10/29 14:10:18;;;;;;;8.02;5.18;;;;;;;;;;5137488;27;20023;-81
2022/10/29 14:12:46;;;;;;;5.45;4.35;;;;;;;;;;5137208;27;20027;-81
2022/10/29 14:15:13;;;;;;;4.13;3.50;;;;;;;;;;5137405;27;20114;-80
2022/10/29 14:17:40;;;;;;;5.30;3.67;;;;;;;;;;5118817;27;20019;-82
2022/10/29 14:20:19;;;;;;;4.88;3.42;;;;;;;;;;5137433;27;20027;-79
2022/10/29 14:22:45;;;;;;;5.95;3.88;;;;;;;;;;5118915;27;20029;-81
2022/10/29 14:25:30;;;;;;;6.13;4.35;;;;;;;;;;5137255;27;20493;-82
2022/10/29 14:28:15;;;;;;;7.13;4.72;;;;;;;;;;5136964;27;20541;-80
2022/10/29 14:30:41;;;;;;;7.68;4.40;;;;;;;;;;5137167;27;20058;-81
2022/10/29 14:33:18;;;;;;;6.43;4.70;;;;;;;;;;5136846;27;20028;-80
2022/10/29 14:35:44;;;;;;;7.90;4.53;;;;;;;;;;5136983;27;20030;-80
2022/10/29 14:38:11;;;;;;;7.22;5.40;;;;;;;;;;5136929;27;20035;-83
2022/10/29 14:40:38;;;;;;;5.22;4.40;;;;;;;;;;5136901;27;20023;-79
2022/10/29 14:43:04;;;;;;;6.78;4.60;;;;;;;;;;5136785;27;20034;-81
2022/10/29 14:45:30;;;;;;;7.88;5.85;;;;;;;;;;5136908;27;20023;-81
2022/10/29 14:47:57;;;;;;;7.22;5.55;;;;;;;;;;5136546;27;20046;-82